createdAt,value
2022-11-27T00:01:39.082Z,101537.69
2022-11-27T00:04:08.752Z,101536.06
2022-11-27T00:06:39.377Z,101542.06
2022-11-27T00:09:12.079Z,101536.06
2022-11-27T00:11:40.973Z,101536.63
2022-11-27T00:14:12.034Z,101536.47
2022-11-27T00:16:42.644Z,101546.97
2022-11-27T00:19:12.581Z,101544.28
2022-11-27T00:21:41.102Z,101546.16
2022-11-27T00:24:10.532Z,101555.97
2022-11-27T00:26:39.027Z,101549.19
2022-11-27T00:29:07.940Z,101546.00
2022-11-27T00:31:39.829Z,101559.72
2022-11-27T00:34:10.189Z,101562.19
2022-11-27T00:36:39.787Z,101562.75
2022-11-27T00:39:11.516Z,101551.59
2022-11-27T00:41:40.381Z,101560.88
2022-11-27T00:44:09.079Z,101555.03
2022-11-27T00:46:38.216Z,101550.13
2022-11-27T00:49:07.857Z,101553.47
2022-11-27T00:51:37.659Z,101561.41
2022-11-27T00:54:07.036Z,101561.41
2022-11-27T00:56:38.291Z,101567.38
2022-11-27T00:59:07.424Z,101567.25
2022-11-27T01:01:38.316Z,101560.88
2022-11-27T01:04:08.751Z,101559.78
2022-11-27T01:06:38.713Z,101563.16
2022-11-27T01:09:07.404Z,101558.66
2022-11-27T01:11:36.895Z,101563.09
2022-11-27T01:14:07.578Z,101556.31
2022-11-27T01:16:42.643Z,101557.06
2022-11-27T01:19:12.828Z,101550.19
2022-11-27T01:21:43.135Z,101556.31
2022-11-27T01:24:13.646Z,101536.81
2022-11-27T01:26:42.400Z,101564.09
2022-11-27T01:29:11.426Z,101560.72
2022-11-27T01:31:42.154Z,101562.41
2022-11-27T01:34:15.804Z,101548.69
2022-11-27T01:36:46.673Z,101561.41
2022-11-27T01:39:17.286Z,101550.19
2022-11-27T01:41:46.227Z,101546.41
2022-11-27T01:44:50.372Z,101558.38
2022-11-27T01:47:39.689Z,101564.47
2022-11-27T01:50:13.653Z,101563.63
2022-11-27T01:52:48.919Z,101557.50
2022-11-27T01:55:23.306Z,101547.69
2022-11-27T01:57:54.958Z,101540.56
2022-11-27T02:00:23.856Z,101547.69
2022-11-27T02:02:52.505Z,101546.91
2022-11-27T02:05:24.694Z,101541.00
2022-11-27T02:07:54.890Z,101535.94
2022-11-27T02:10:27.806Z,101546.91
2022-11-27T02:13:01.126Z,101547.03
2022-11-27T02:15:36.930Z,101538.84
2022-11-27T02:18:14.976Z,101550.91
2022-11-27T02:20:51.868Z,101553.34
2022-11-27T02:23:49.526Z,101553.28
2022-11-27T02:26:47.003Z,101547.34
2022-11-27T02:29:20.964Z,101555.91
2022-11-27T02:31:58.165Z,101556.66
2022-11-27T02:34:35.920Z,101561.06
2022-11-27T02:37:14.932Z,101564.47
2022-11-27T02:39:51.031Z,101550.38
2022-11-27T02:42:28.171Z,101540.19
2022-11-27T02:45:02.546Z,101555.44
2022-11-27T02:47:33.903Z,101557.25
2022-11-27T02:50:03.746Z,101546.97
2022-11-27T02:52:34.305Z,101554.69
2022-11-27T02:55:07.207Z,101558.84
2022-11-27T02:57:37.972Z,101537.97
2022-11-27T03:00:09.785Z,101537.03
2022-11-27T03:02:44.030Z,101541.53
2022-11-27T03:05:18.539Z,101541.47
2022-11-27T03:07:51.416Z,101540.59
2022-11-27T03:10:25.858Z,101528.50
2022-11-27T03:12:54.485Z,101521.53
2022-11-27T03:15:26.397Z,101516.53
2022-11-27T03:18:00.377Z,101528.00
2022-11-27T03:20:32.949Z,101515.59
2022-11-27T03:23:01.364Z,101534.78
2022-11-27T03:25:30.461Z,101537.31
2022-11-27T03:28:01.626Z,101538.91
2022-11-27T03:30:31.607Z,101534.59
2022-11-27T03:33:00.604Z,101545.88
2022-11-27T03:35:30.042Z,101534.34
2022-11-27T03:37:58.570Z,101536.97
2022-11-27T03:40:34.797Z,101529.16
2022-11-27T03:43:11.233Z,101533.28
2022-11-27T03:45:51.957Z,101524.47
2022-11-27T03:48:25.738Z,101522.78
2022-11-27T03:51:04.337Z,101512.63
2022-11-27T03:53:39.976Z,101521.94
2022-11-27T03:56:14.164Z,101507.28
2022-11-27T03:58:46.486Z,101512.25
2022-11-27T04:01:20.189Z,101508.50
2022-11-27T04:03:48.978Z,101513.00
2022-11-27T04:06:17.750Z,101505.06
2022-11-27T04:08:48.058Z,101499.09
2022-11-27T04:11:16.907Z,101505.97
2022-11-27T04:13:45.252Z,101499.84
2022-11-27T04:16:13.729Z,101503.25
2022-11-27T04:18:43.542Z,101497.06
2022-11-27T04:21:12.908Z,101506.56
2022-11-27T04:23:41.552Z,101504.75
2022-11-27T04:26:10.190Z,101502.06
2022-11-27T04:28:38.675Z,101502.13
2022-11-27T04:31:07.329Z,101489.16
2022-11-27T04:33:35.854Z,101501.94
2022-11-27T04:36:06.077Z,101499.25
2022-11-27T04:38:34.498Z,101493.13
2022-11-27T04:41:03.024Z,101482.78
2022-11-27T04:43:31.524Z,101483.72
2022-11-27T04:45:59.904Z,101486.53
2022-11-27T04:48:28.283Z,101456.91
2022-11-27T04:50:56.729Z,101485.00
2022-11-27T04:53:26.694Z,101476.56
2022-11-27T04:55:55.134Z,101481.63
2022-11-27T04:58:23.562Z,101479.00
2022-11-27T05:00:52.105Z,101474.84
2022-11-27T05:03:21.217Z,101477.50
2022-11-27T05:05:56.727Z,101480.81
2022-11-27T05:08:27.429Z,101478.25
2022-11-27T05:11:07.297Z,101481.56
2022-11-27T05:13:36.396Z,101485.38
2022-11-27T05:16:05.565Z,101487.44
2022-11-27T05:18:34.293Z,101481.53
2022-11-27T05:21:05.265Z,101492.69
2022-11-27T05:23:36.245Z,101493.44
2022-11-27T05:26:04.682Z,101478.03
2022-11-27T05:28:33.079Z,101506.34
2022-11-27T05:31:01.506Z,101500.97
2022-11-27T05:33:29.892Z,101517.69
2022-11-27T05:35:58.390Z,101514.50
2022-11-27T05:38:27.191Z,101511.28
2022-11-27T05:40:57.354Z,101496.78
2022-11-27T05:43:25.805Z,101494.63
2022-11-27T05:45:54.271Z,101508.00
2022-11-27T05:48:22.710Z,101509.00
2022-11-27T05:50:51.255Z,101491.41
2022-11-27T05:53:19.629Z,101519.53
2022-11-27T05:55:48.039Z,101521.78
2022-11-27T05:58:17.941Z,101523.41
2022-11-27T06:00:47.024Z,101516.34
2022-11-27T06:03:15.561Z,101517.47
2022-11-27T06:05:44.071Z,101510.34
2022-11-27T06:08:12.612Z,101517.47
2022-11-27T06:10:41.250Z,101515.19
2022-11-27T06:13:09.787Z,101524.94
2022-11-27T06:15:40.411Z,101523.84
2022-11-27T06:18:09.443Z,101513.25
2022-11-27T06:20:43.371Z,101504.97
2022-11-27T06:23:12.719Z,101530.78
2022-11-27T06:25:41.147Z,101518.47
2022-11-27T06:28:09.780Z,101530.31
2022-11-27T06:30:40.526Z,101534.63
2022-11-27T06:33:08.925Z,101540.38
2022-11-27T06:35:37.504Z,101541.25
2022-11-27T06:38:05.888Z,101544.88
2022-11-27T06:40:34.380Z,101552.59
2022-11-27T06:43:02.802Z,101549.03
2022-11-27T06:45:31.271Z,101546.31
2022-11-27T06:48:01.475Z,101544.47
2022-11-27T06:50:29.841Z,101543.75
2022-11-27T06:52:58.323Z,101543.13
2022-11-27T06:55:27.009Z,101548.09
2022-11-27T06:57:56.980Z,101543.59
2022-11-27T07:00:25.420Z,101529.88
2022-11-27T07:02:56.160Z,101535.97
2022-11-27T07:05:26.489Z,101533.78
2022-11-27T07:07:54.972Z,101537.34
2022-11-27T07:10:23.627Z,101540.72
2022-11-27T07:12:51.989Z,101535.47
2022-11-27T07:15:20.408Z,101544.13
2022-11-27T07:17:48.917Z,101543.13
2022-11-27T07:20:17.602Z,101547.34
2022-11-27T07:22:47.527Z,101536.81
2022-11-27T07:25:15.966Z,101542.84
2022-11-27T07:27:44.425Z,101529.88
2022-11-27T07:30:13.612Z,101533.34
2022-11-27T07:32:42.105Z,101514.44
2022-11-27T07:35:12.007Z,101525.72
2022-11-27T07:37:40.483Z,101528.34
2022-11-27T07:40:10.894Z,101528.16
2022-11-27T07:42:39.536Z,101530.78
2022-11-27T07:45:09.194Z,101530.72
2022-11-27T07:47:37.756Z,101535.81
2022-11-27T07:50:08.583Z,101526.13
2022-11-27T07:52:41.534Z,101529.44
2022-11-27T07:55:12.121Z,101534.41
2022-11-27T07:57:40.600Z,101520.31
2022-11-27T08:00:10.233Z,101508.66
2022-11-27T08:02:38.668Z,101523.06
2022-11-27T08:05:12.484Z,101526.53
2022-11-27T08:07:42.166Z,101523.06
2022-11-27T08:10:12.390Z,101522.19
2022-11-27T08:12:40.900Z,101502.06
2022-11-27T08:15:10.660Z,101504.44
2022-11-27T08:17:39.243Z,101520.69
2022-11-27T08:20:09.157Z,101512.63
2022-11-27T08:22:39.325Z,101522.97
2022-11-27T08:25:08.538Z,101518.56
2022-11-27T08:27:38.447Z,101525.50
2022-11-27T08:30:09.646Z,101522.19
2022-11-27T08:32:40.127Z,101519.69
2022-11-27T08:35:09.511Z,101521.63
2022-11-27T08:37:38.036Z,101521.63
2022-11-27T08:40:07.765Z,101524.25
2022-11-27T08:42:37.658Z,101517.13
2022-11-27T08:45:06.513Z,101509.00
2022-11-27T08:47:34.954Z,101529.88
2022-11-27T08:50:03.474Z,101533.19
2022-11-27T08:52:32.109Z,101513.25
2022-11-27T08:55:00.574Z,101534.59
2022-11-27T08:57:29.129Z,101536.22
2022-11-27T08:59:59.010Z,101538.16
2022-11-27T09:02:27.429Z,101545.09
2022-11-27T09:04:55.879Z,101537.41
2022-11-27T09:07:24.413Z,101540.19
2022-11-27T09:09:52.889Z,101539.38
2022-11-27T09:12:21.357Z,101526.06
2022-11-27T09:14:49.750Z,101534.78
2022-11-27T09:17:19.837Z,101533.00
2022-11-27T09:19:48.211Z,101506.38
2022-11-27T09:22:16.601Z,101534.59
2022-11-27T09:24:45.068Z,101524.75
2022-11-27T09:27:13.528Z,101522.03
2022-11-27T09:29:42.017Z,101523.53
2022-11-27T09:32:10.533Z,101526.91
2022-11-27T09:34:40.956Z,101521.31
2022-11-27T09:37:10.365Z,101524.88
2022-11-27T09:39:39.082Z,101520.53
2022-11-27T09:42:09.870Z,101517.91
2022-11-27T09:44:45.568Z,101498.75
2022-11-27T09:47:21.518Z,101510.97
2022-11-27T09:49:55.214Z,101504.69
2022-11-27T09:52:29.498Z,101497.06
2022-11-27T09:55:02.873Z,101503.66
2022-11-27T09:57:35.856Z,101488.03
2022-11-27T10:00:08.229Z,101494.63
2022-11-27T10:02:37.141Z,101491.34
2022-11-27T10:05:16.969Z,101488.16
2022-11-27T10:08:10.952Z,101478.56
2022-11-27T10:10:46.880Z,101476.56
2022-11-27T10:13:39.237Z,101473.78
2022-11-27T10:16:14.355Z,101467.56
2022-11-27T10:18:48.184Z,101443.59
2022-11-27T10:21:27.363Z,101456.88
2022-11-27T10:24:03.071Z,101445.59
2022-11-27T10:26:39.384Z,101445.22
2022-11-27T10:29:17.894Z,101433.84
2022-11-27T10:31:51.229Z,101441.56
2022-11-27T10:34:27.655Z,101442.88
2022-11-27T10:36:59.097Z,101436.13
2022-11-27T10:39:41.384Z,101451.09
2022-11-27T10:42:15.785Z,101443.00
2022-11-27T10:44:49.331Z,101446.19
2022-11-27T10:47:19.969Z,101441.69
2022-11-27T10:49:49.807Z,101442.25
2022-11-27T10:52:21.413Z,101442.81
2022-11-27T10:54:55.786Z,101438.09
2022-11-27T10:57:44.723Z,101435.66
2022-11-27T11:00:17.208Z,101431.41
2022-11-27T11:02:45.752Z,101431.13
2022-11-27T11:05:57.480Z,101425.75
2022-11-27T11:08:19.270Z,101430.19
2022-11-27T11:10:53.061Z,101418.63
2022-11-27T11:13:23.842Z,101418.44
2022-11-27T11:15:56.493Z,101404.69
2022-11-27T11:18:27.042Z,101412.53
2022-11-27T11:20:57.968Z,101415.91
2022-11-27T11:23:34.185Z,101415.59
2022-11-27T11:26:07.062Z,101404.13
2022-11-27T11:28:43.693Z,101401.41
2022-11-27T11:31:16.126Z,101405.72
2022-11-27T11:33:52.610Z,101414.38
2022-11-27T11:36:21.631Z,101414.47
2022-11-27T11:38:52.344Z,101407.97
2022-11-27T11:41:22.000Z,101414.94
2022-11-27T11:44:02.052Z,101409.13
2022-11-27T11:46:33.947Z,101399.31
2022-11-27T11:49:07.022Z,101405.16
2022-11-27T11:52:04.637Z,101399.78
2022-11-27T11:54:56.481Z,101402.31
2022-11-27T11:58:00.906Z,101398.94
2022-11-27T12:01:04.431Z,101398.94
2022-11-27T12:03:41.856Z,101392.81
2022-11-27T12:06:34.280Z,101394.22
2022-11-27T12:09:15.500Z,101399.50
2022-11-27T12:11:53.478Z,101385.03
2022-11-27T12:14:37.631Z,101398.94
2022-11-27T12:17:17.960Z,101396.38
2022-11-27T12:20:15.440Z,101383.97
2022-11-27T12:23:10.281Z,101383.69
2022-11-27T12:25:43.089Z,101381.69
2022-11-27T12:28:26.555Z,101384.88
2022-11-27T12:31:05.480Z,101386.66
2022-11-27T12:33:49.839Z,101375.19
2022-11-27T12:36:30.201Z,101378.66
2022-11-27T12:39:13.764Z,101384.47
2022-11-27T12:42:02.189Z,101373.09
2022-11-27T12:44:44.812Z,101363.41
2022-11-27T12:47:20.390Z,101376.69
2022-11-27T12:49:53.202Z,101371.97
2022-11-27T12:52:25.079Z,101371.97
2022-11-27T12:54:59.240Z,101366.56
2022-11-27T12:57:35.556Z,101363.94
2022-11-27T13:00:08.452Z,101367.63
2022-11-27T13:02:39.867Z,101370.81
2022-11-27T13:05:13.554Z,101365.34
2022-11-27T13:07:47.685Z,101358.78
2022-11-27T13:10:25.456Z,101360.06
2022-11-27T13:13:02.413Z,101370.63
2022-11-27T13:15:40.776Z,101357.97
2022-11-27T13:18:20.403Z,101364.00
2022-11-27T13:20:52.514Z,101356.84
2022-11-27T13:23:21.548Z,101369.06
2022-11-27T13:25:53.231Z,101354.41
2022-11-27T13:28:31.175Z,101350.72
2022-11-27T13:31:02.917Z,101354.94
2022-11-27T13:33:38.634Z,101354.66
2022-11-27T13:36:19.081Z,101350.22
2022-11-27T13:38:53.197Z,101340.63
2022-11-27T13:41:22.758Z,101344.00
2022-11-27T13:43:52.925Z,101334.38
2022-11-27T13:46:26.195Z,101330.81
2022-11-27T13:48:57.788Z,101330.38
2022-11-27T13:51:29.663Z,101335.53
2022-11-27T13:54:10.111Z,101333.31
2022-11-27T13:56:38.792Z,101326.56
2022-11-27T13:59:21.604Z,101317.78
2022-11-27T14:01:59.493Z,101318.59
2022-11-27T14:04:28.803Z,101311.09
2022-11-27T14:07:03.382Z,101313.19
2022-11-27T14:09:38.289Z,101309.94
2022-11-27T14:12:18.624Z,101312.44
2022-11-27T14:15:02.523Z,101304.94
2022-11-27T14:17:39.250Z,101310.41
2022-11-27T14:20:22.707Z,101310.41
2022-11-27T14:23:12.197Z,101305.47
2022-11-27T14:25:41.329Z,101310.19
2022-11-27T14:28:16.274Z,101300.78
2022-11-27T14:30:48.449Z,101309.91
2022-11-27T14:33:23.980Z,101308.16
2022-11-27T14:35:53.710Z,101313.41
2022-11-27T14:38:22.509Z,101299.69
2022-11-27T14:40:53.424Z,101304.03
2022-11-27T14:43:26.145Z,101289.06
2022-11-27T14:45:56.862Z,101291.59
2022-11-27T14:48:28.612Z,101289.56
2022-11-27T14:50:58.081Z,101279.56
2022-11-27T14:53:29.732Z,101277.63
2022-11-27T14:55:59.923Z,101277.72
2022-11-27T14:58:29.710Z,101282.81
2022-11-27T15:01:01.793Z,101283.09
2022-11-27T15:03:32.397Z,101280.75
2022-11-27T15:06:03.012Z,101278.00
2022-11-27T15:08:34.711Z,101274.56
2022-11-27T15:11:05.501Z,101266.84
2022-11-27T15:13:36.043Z,101269.84
2022-11-27T15:16:07.739Z,101273.31
2022-11-27T15:18:39.836Z,101279.50
2022-11-27T15:21:13.285Z,101283.75
2022-11-27T15:23:47.004Z,101276.78
2022-11-27T15:26:22.493Z,101275.31
2022-11-27T15:28:54.803Z,101273.81
2022-11-27T15:31:26.012Z,101259.59
2022-11-27T15:34:01.873Z,101266.09
2022-11-27T15:36:37.867Z,101263.47
2022-11-27T15:39:23.116Z,101264.03
2022-11-27T15:41:56.130Z,101236.63
2022-11-27T15:44:25.078Z,101266.78
2022-11-27T15:46:55.095Z,101263.84
2022-11-27T15:49:25.180Z,101234.94
2022-11-27T15:51:53.834Z,101259.72
2022-11-27T15:54:22.311Z,101269.75
2022-11-27T15:56:50.876Z,101271.19
2022-11-27T15:59:20.951Z,101272.75
2022-11-27T16:01:50.296Z,101263.84
2022-11-27T16:04:21.960Z,101273.97
2022-11-27T16:06:51.804Z,101273.03
2022-11-27T16:09:20.174Z,101280.53
2022-11-27T16:11:48.884Z,101275.13
2022-11-27T16:14:17.416Z,101264.81
2022-11-27T16:16:45.992Z,101268.84
2022-11-27T16:19:15.121Z,101267.34
2022-11-27T16:21:43.611Z,101266.41
2022-11-27T16:24:15.260Z,101272.81
2022-11-27T16:26:44.104Z,101256.38
2022-11-27T16:29:12.915Z,101250.47
2022-11-27T16:31:41.924Z,101223.06
2022-11-27T16:34:10.435Z,101232.84
2022-11-27T16:36:41.387Z,101248.00
2022-11-27T16:39:09.874Z,101245.16
2022-11-27T16:41:39.762Z,101234.38
2022-11-27T16:44:12.753Z,101236.81
2022-11-27T16:46:41.644Z,101235.97
2022-11-27T16:49:10.139Z,101232.69
2022-11-27T16:51:40.291Z,101225.94
2022-11-27T16:54:12.581Z,101229.63
2022-11-27T16:56:42.449Z,101222.75
2022-11-27T16:59:11.447Z,101218.63
2022-11-27T17:01:41.355Z,101217.69
2022-11-27T17:04:10.973Z,101222.94
2022-11-27T17:06:40.194Z,101209.44
2022-11-27T17:09:09.622Z,101214.69
2022-11-27T17:11:42.576Z,101203.41
2022-11-27T17:14:13.168Z,101206.44
2022-11-27T17:16:42.972Z,101203.81
2022-11-27T17:19:14.199Z,101205.69
2022-11-27T17:21:43.354Z,101192.84
2022-11-27T17:24:15.951Z,101180.91
2022-11-27T17:26:46.044Z,101189.47
2022-11-27T17:29:17.962Z,101199.31
2022-11-27T17:31:46.530Z,101178.84
2022-11-27T17:34:16.776Z,101188.91
2022-11-27T17:36:46.153Z,101171.09
2022-11-27T17:39:15.950Z,101188.78
2022-11-27T17:41:45.482Z,101172.78
2022-11-27T17:44:15.505Z,101191.44
2022-11-27T17:46:48.294Z,101185.34
2022-11-27T17:49:16.880Z,101187.84
2022-11-27T17:51:45.286Z,101175.75
2022-11-27T17:54:13.662Z,101180.16
2022-11-27T17:56:42.147Z,101182.91
2022-11-27T17:59:10.751Z,101180.47
2022-11-27T18:01:40.867Z,101178.09
2022-11-27T18:04:10.759Z,101156.91
2022-11-27T18:06:39.204Z,101178.84
2022-11-27T18:09:07.659Z,101171.34
2022-11-27T18:11:36.237Z,101175.66
2022-11-27T18:14:05.376Z,101181.78
2022-11-27T18:16:35.699Z,101181.59
2022-11-27T18:19:07.565Z,101174.66
2022-11-27T18:21:36.364Z,101173.78
2022-11-27T18:24:23.658Z,101173.97
2022-11-27T18:27:07.648Z,101172.84
2022-11-27T18:29:37.697Z,101173.53
2022-11-27T18:32:06.842Z,101166.56
2022-11-27T18:34:36.782Z,101164.78
2022-11-27T18:37:06.033Z,101167.41
2022-11-27T18:39:35.443Z,101158.50
2022-11-27T18:42:05.237Z,101169.84
2022-11-27T18:44:38.376Z,101166.28
2022-11-27T18:47:10.393Z,101155.94
2022-11-27T18:49:41.150Z,101139.94
2022-11-27T18:52:10.956Z,101162.63
2022-11-27T18:54:39.654Z,101149.47
2022-11-27T18:57:08.316Z,101143.75
2022-11-27T18:59:36.870Z,101143.56
2022-11-27T19:02:06.233Z,101139.53
2022-11-27T19:04:37.586Z,101152.38
2022-11-27T19:07:07.587Z,101150.88
2022-11-27T19:09:35.991Z,101150.88
2022-11-27T19:12:04.537Z,101150.88
2022-11-27T19:14:32.984Z,101143.09
2022-11-27T19:17:01.343Z,101142.06
2022-11-27T19:22:22.966Z,101136.91
2022-11-27T19:24:51.387Z,101140.56
2022-11-27T19:27:19.787Z,101133.81
2022-11-27T19:29:49.117Z,101117.59
2022-11-27T19:32:18.107Z,101131.19
2022-11-27T19:34:46.472Z,101134.75
2022-11-27T19:37:15.330Z,101118.97
2022-11-27T19:39:45.346Z,101112.03
2022-11-27T19:42:13.916Z,101119.16
2022-11-27T19:44:42.903Z,101116.75
2022-11-27T19:47:11.520Z,101114.50
2022-11-27T19:49:40.655Z,101110.38
2022-11-27T19:52:09.068Z,101095.00
2022-11-27T19:54:37.674Z,101095.22
2022-11-27T19:57:08.907Z,101089.72
2022-11-27T19:59:38.044Z,101084.16
2022-11-27T20:02:06.570Z,101105.31
2022-11-27T20:04:35.091Z,101104.78
2022-11-27T20:07:03.578Z,101104.03
2022-11-27T20:09:31.979Z,101098.22
2022-11-27T20:12:01.815Z,101100.97
2022-11-27T20:14:31.640Z,101099.47
2022-11-27T20:17:00.110Z,101097.66
2022-11-27T20:19:30.725Z,101108.19
2022-11-27T20:21:59.159Z,101103.97
2022-11-27T20:24:27.572Z,101108.47
2022-11-27T20:26:56.041Z,101096.47
2022-11-27T20:29:24.458Z,101090.28
2022-11-27T20:31:54.380Z,101092.22
2022-11-27T20:34:23.888Z,101085.03
2022-11-27T20:36:52.325Z,101085.03
2022-11-27T20:39:21.858Z,101071.72
2022-11-27T20:41:53.590Z,101084.09
2022-11-27T20:44:23.685Z,101079.66
2022-11-27T20:46:54.136Z,101078.09
2022-11-27T20:49:22.579Z,101077.53
2022-11-27T20:51:50.970Z,101071.41
2022-11-27T20:54:19.474Z,101068.91
2022-11-27T20:56:48.179Z,101064.97
2022-11-27T20:59:16.541Z,101042.28
2022-11-27T21:01:45.050Z,101054.91
2022-11-27T21:04:23.095Z,101058.47
2022-11-27T21:06:51.987Z,101040.97
2022-11-27T21:09:21.243Z,101035.53
2022-11-27T21:11:49.687Z,101034.03
2022-11-27T21:14:19.025Z,101033.28
2022-11-27T21:16:49.975Z,101034.66
2022-11-27T21:19:22.130Z,101026.59
2022-11-27T21:21:51.547Z,101040.59
2022-11-27T21:24:21.148Z,101035.66
2022-11-27T21:26:50.054Z,101038.41
2022-11-27T21:29:24.905Z,101033.97
2022-11-27T21:31:54.186Z,101032.09
2022-11-27T21:34:24.208Z,101029.09
2022-11-27T21:36:52.615Z,101027.59
2022-11-27T21:39:21.356Z,101040.13
2022-11-27T21:41:51.952Z,101038.25
2022-11-27T21:44:20.871Z,101032.19
2022-11-27T21:46:50.296Z,101038.44
2022-11-27T21:49:20.327Z,101028.47
2022-11-27T21:51:52.514Z,101028.00
2022-11-27T21:54:21.331Z,101031.47
2022-11-27T21:56:52.905Z,101019.25
2022-11-27T21:59:21.343Z,101025.44
2022-11-27T22:01:49.958Z,101021.88
2022-11-27T22:04:18.565Z,101018.69
2022-11-27T22:06:47.303Z,101020.13
2022-11-27T22:09:17.394Z,101022.00
2022-11-27T22:11:46.980Z,101023.09
2022-11-27T22:14:17.153Z,101013.97
2022-11-27T22:16:47.280Z,101019.16
2022-11-27T22:19:16.342Z,101018.47
2022-11-27T22:21:45.795Z,101018.41
2022-11-27T22:24:18.817Z,101023.63
2022-11-27T22:26:49.696Z,101019.31
2022-11-27T22:29:18.317Z,101025.66
2022-11-27T22:31:46.764Z,101022.88
2022-11-27T22:34:15.193Z,101015.78
2022-11-27T22:36:43.513Z,100986.03
2022-11-27T22:39:11.966Z,101014.09
2022-11-27T22:41:42.395Z,101014.25
2022-11-27T22:44:16.505Z,100997.53
2022-11-27T22:46:45.508Z,101007.00
2022-11-27T22:49:15.727Z,101001.84
2022-11-27T22:51:44.147Z,101002.03
2022-11-27T22:54:15.120Z,101003.91
2022-11-27T22:56:45.683Z,101003.13
2022-11-27T22:59:33.223Z,101001.69
2022-11-27T23:02:02.633Z,100992.22
2022-11-27T23:04:31.208Z,100994.75
2022-11-27T23:06:59.915Z,100994.94
2022-11-27T23:09:28.412Z,100988.75
2022-11-27T23:11:57.235Z,100994.00
2022-11-27T23:14:27.798Z,100989.75
2022-11-27T23:16:56.324Z,100989.34
2022-11-27T23:19:25.107Z,100990.97
2022-11-27T23:21:53.577Z,100993.84
2022-11-27T23:24:22.043Z,100983.88
2022-11-27T23:26:50.450Z,100960.06
2022-11-27T23:29:18.935Z,100982.84
2022-11-27T23:31:48.829Z,100977.59
2022-11-27T23:34:17.353Z,100980.97
2022-11-27T23:36:46.067Z,100969.09
2022-11-27T23:39:15.685Z,100974.41
2022-11-27T23:41:44.617Z,100964.59
2022-11-27T23:44:13.256Z,100975.50
2022-11-27T23:46:41.718Z,100972.63
2022-11-27T23:49:11.727Z,100970.94
2022-11-27T23:51:40.184Z,100967.41
2022-11-27T23:54:10.993Z,100969.25
2022-11-27T23:56:40.030Z,100971.00
2022-11-27T23:59:08.754Z,100958.78
